Time;durP1;ratioP1;P1;durP2;ratioP2;P2;SDS_P1;SDS_P2;PMS_P1;PMS_P2;Temp;Humidity;BMP_temperature;BMP_pressure;BME280_temperature;BME280_humidity;BME280_pressure;Samples;Min_cycle;Max_cycle;Signal;HPM_P1;HPM_P2
2022/04/01 00:01:10;;;;;;;22.10;12.70;;;5.70;99.90;;;6.24;74.14;95656.94;5024990;28;20351;-45
2022/04/01 00:03:38;;;;;;;27.43;15.03;;;5.80;99.90;;;6.24;74.14;95662.22;5025329;28;20061;-47
2022/04/01 00:06:06;;;;;;;26.87;15.23;;;5.80;99.90;;;6.22;74.19;95661.59;5025584;28;20062;-44
2022/04/01 00:08:34;;;;;;;29.40;16.70;;;5.70;99.90;;;6.19;74.65;95661.97;5025861;28;20053;-44
2022/04/01 00:11:02;;;;;;;31.67;19.97;;;5.70;99.90;;;5.95;74.65;95660.34;5026443;28;20073;-44
2022/04/01 00:13:30;;;;;;;33.93;19.00;;;5.50;99.90;;;5.90;74.98;95656.44;5025505;28;20071;-44
2022/04/01 00:15:59;;;;;;;31.33;19.23;;;5.50;99.90;;;5.67;75.94;95653.84;5025301;28;20350;-44
2022/04/01 00:18:27;;;;;;;36.20;20.73;;;5.40;99.90;;;5.64;74.99;95662.16;5026201;28;20055;-45
2022/04/01 00:20:55;;;;;;;38.27;22.53;;;5.30;99.90;;;5.52;76.98;95658.28;5026147;28;20067;-44
2022/04/01 00:23:23;;;;;;;34.33;20.80;;;5.30;99.90;;;5.45;76.85;95657.38;5025300;28;20053;-44
2022/04/01 00:25:51;;;;;;;34.57;19.93;;;5.20;99.90;;;5.32;76.98;95666.69;5026668;28;20373;-44
2022/04/01 00:28:18;;;;;;;45.67;20.60;;;5.10;99.90;;;5.16;78.42;95658.06;5026205;28;20577;-45
2022/04/01 00:30:46;;;;;;;33.80;20.57;;;5.00;99.90;;;5.16;77.99;95655.41;5029705;28;20716;-44
2022/04/01 00:33:16;;;;;;;33.73;20.90;;;4.90;99.90;;;5.12;78.54;95653.16;5028015;28;20356;-43
2022/04/01 00:35:44;;;;;;;31.17;18.83;;;4.90;99.90;;;5.03;78.66;95656.84;5029068;28;20065;-44
2022/04/01 00:38:13;;;;;;;37.73;21.33;;;4.90;99.90;;;5.26;77.91;95656.84;5028111;28;20068;-44
2022/04/01 00:40:41;;;;;;;37.57;21.20;;;5.00;99.90;;;5.38;77.39;95645.88;5029847;28;20249;-45
2022/04/01 00:43:10;;;;;;;34.37;20.87;;;5.10;99.90;;;5.36;77.29;95659.25;5030311;28;20053;-44
2022/04/01 00:45:38;;;;;;;38.20;20.50;;;5.10;99.90;;;5.49;76.33;95659.47;5029653;28;20072;-45
2022/04/01 00:48:07;;;;;;;36.87;20.67;;;5.20;99.90;;;5.47;76.99;95663.28;5029238;28;20057;-46
2022/04/01 00:50:35;;;;;;;33.03;18.60;;;5.20;99.90;;;5.46;77.50;95661.63;5029217;28;20292;-45
2022/04/01 00:53:04;;;;;;;27.93;17.77;;;5.10;99.90;;;5.41;76.93;95659.53;5027873;28;20061;-44
2022/04/01 00:55:31;;;;;;;33.20;19.33;;;5.10;99.90;;;5.34;76.74;95650.69;5028363;28;20057;-44
2022/04/01 00:58:03;;;;;;;32.47;19.97;;;5.10;99.90;;;5.37;77.34;95658.25;5028596;28;20050;-45
2022/04/01 01:00:31;;;;;;;32.37;17.90;;;5.10;99.90;;;5.28;77.34;95657.47;5029896;28;20079;-44
2022/04/01 01:02:59;;;;;;;31.43;18.57;;;5.00;99.90;;;5.38;76.90;95657.25;5028199;28;20057;-45
2022/04/01 01:05:27;;;;;;;36.93;20.20;;;5.00;99.90;;;5.45;76.22;95660.00;5029276;28;20051;-45
2022/04/01 01:07:55;;;;;;;39.53;19.90;;;5.10;99.90;;;5.51;77.07;95654.00;5029686;28;20061;-44
2022/04/01 01:10:23;;;;;;;31.00;18.83;;;5.20;99.90;;;5.51;76.14;95648.72;5028256;28;20485;-44
2022/04/01 01:12:51;;;;;;;30.90;17.70;;;5.10;99.90;;;5.65;76.65;95649.75;5027290;28;20382;-47
2022/04/01 01:15:19;;;;;;;29.53;15.93;;;5.30;99.90;;;5.22;77.14;95652.91;5028637;28;20060;-45
2022/04/01 01:17:49;;;;;;;28.17;15.97;;;5.00;99.90;;;5.09;77.25;95660.59;5028360;28;20063;-46
2022/04/01 01:20:17;;;;;;;29.03;17.57;;;4.90;99.90;;;5.14;76.90;95650.34;5027078;28;20252;-44
2022/04/01 01:22:49;;;;;;;34.07;18.50;;;4.80;99.90;;;5.04;77.72;95658.50;5027806;28;20065;-46
2022/04/01 01:25:17;;;;;;;46.83;22.13;;;4.70;99.90;;;5.16;76.67;95647.50;5029701;28;20060;-46
2022/04/01 01:27:45;;;;;;;33.93;19.03;;;4.80;99.90;;;5.10;77.54;95656.97;5011631;28;20259;-45
2022/04/01 01:30:14;;;;;;;30.47;18.20;;;4.80;99.90;;;4.95;78.33;95656.09;5026273;28;20259;-46
2022/04/01 01:32:43;;;;;;;38.13;19.63;;;4.70;99.90;;;4.92;78.30;95655.44;5028890;28;20049;-43
2022/04/01 01:35:12;;;;;;;50.30;22.07;;;4.70;99.90;;;5.07;77.40;95658.13;5028589;28;20049;-47
2022/04/01 01:37:40;;;;;;;33.53;18.27;;;4.80;99.90;;;4.93;78.13;95651.78;5027047;28;20262;-45
2022/04/01 01:40:10;;;;;;;34.90;19.93;;;4.70;99.90;;;4.89;78.25;95649.69;5028273;28;20041;-46
2022/04/01 01:42:38;;;;;;;30.67;17.90;;;4.70;99.90;;;4.73;78.21;95655.88;5027698;28;20054;-45
2022/04/01 01:45:07;;;;;;;32.07;19.20;;;4.60;99.90;;;4.63;78.75;95656.06;5026523;28;20102;-45
2022/04/01 01:47:34;;;;;;;34.53;19.80;;;4.40;99.90;;;4.54;79.01;95650.03;5025211;28;20060;-45
2022/04/01 01:55:36;;;;;;;36.30;19.53;;;4.40;99.90;;;4.62;78.65;95654.44;5028740;28;20075;-44
2022/04/01 01:58:05;;;;;;;31.50;17.50;;;4.50;99.90;;;4.82;78.83;95654.00;5026662;28;20067;-46
2022/04/01 02:00:36;;;;;;;34.13;21.00;;;4.70;99.90;;;4.74;78.79;95652.25;5026738;28;20075;-46
2022/04/01 02:03:04;;;;;;;33.87;19.70;;;4.60;99.90;;;4.82;78.83;95664.56;5027140;28;20262;-45
2022/04/01 02:05:34;;;;;;;31.97;19.47;;;4.60;99.90;;;4.65;78.60;95664.66;5028207;28;20060;-45
2022/04/01 02:08:05;;;;;;;34.97;21.43;;;4.50;99.90;;;4.60;78.88;95656.44;5026484;28;20057;-46
2022/04/01 02:10:34;;;;;;;51.00;22.60;;;4.40;99.90;;;4.61;78.83;95655.44;5010355;28;20057;-45
2022/04/01 02:13:03;;;;;;;34.00;20.70;;;4.40;99.90;;;4.59;79.33;95652.16;5043660;28;20060;-45
2022/04/01 02:15:32;;;;;;;39.00;18.30;;;4.40;99.90;;;4.56;79.16;95660.41;5024971;28;20072;-45
2022/04/01 02:18:04;;;;;;;37.23;20.53;;;4.40;99.90;;;4.65;78.54;95654.13;5027163;28;20070;-45
2022/04/01 02:20:33;;;;;;;41.67;19.63;;;4.40;99.90;;;4.56;79.27;95649.06;5025870;28;20267;-46
2022/04/01 02:23:01;;;;;;;39.50;18.27;;;4.40;99.90;;;4.58;78.81;95657.63;5027212;28;20049;-47
2022/04/01 02:25:30;;;;;;;49.67;21.47;;;4.40;99.90;;;4.60;78.53;95648.53;5025228;28;20096;-43
2022/04/01 02:27:58;;;;;;;36.07;20.03;;;4.40;99.90;;;4.69;78.23;95652.78;5024994;28;20053;-45
2022/04/01 02:30:27;;;;;;;30.93;15.83;;;4.40;99.90;;;4.42;78.99;95643.53;5024781;28;20267;-44
2022/04/01 02:33:20;;;;;;;32.78;19.17;;;4.30;99.90;;;4.49;78.56;95651.53;5027415;28;20061;-44
2022/04/01 02:35:58;;;;;;;35.07;18.77;;;4.30;99.90;;;4.45;79.03;95647.63;5025177;28;20367;-45
2022/04/01 02:38:29;;;;;;;35.47;19.83;;;4.30;99.90;;;4.51;78.48;95654.81;5025278;28;20057;-44
2022/04/01 02:40:58;;;;;;;30.13;17.67;;;4.30;99.90;;;4.49;78.90;95651.53;5025115;28;20057;-44
2022/04/01 02:43:31;;;;;;;35.00;17.38;;;4.30;99.90;;;4.41;78.65;95654.22;5041288;28;20063;-43
2022/04/01 02:45:59;;;;;;;31.17;17.50;;;4.20;99.90;;;4.22;79.09;95658.06;5027535;28;20057;-43
2022/04/01 02:48:29;;;;;;;33.30;18.50;;;4.10;99.90;;;4.31;79.52;95657.06;5041727;28;20057;-44
2022/04/01 02:51:17;;;;;;;27.77;17.57;;;4.10;99.90;;;4.30;79.01;95660.69;5025072;28;20053;-44
2022/04/01 02:53:47;;;;;;;29.47;19.03;;;4.20;99.90;;;4.12;79.31;95658.28;5026355;28;20059;-46
2022/04/01 02:56:15;;;;;;;31.53;16.90;;;4.00;99.90;;;4.20;79.09;95654.78;5025431;28;20054;-44
2022/04/01 02:58:43;;;;;;;30.20;17.40;;;4.00;99.90;;;4.03;80.01;95662.75;5024741;28;20287;-44
2022/04/01 03:01:12;;;;;;;28.70;17.27;;;3.90;99.90;;;3.75;80.66;95657.06;5025515;28;20060;-46
2022/04/01 03:03:41;;;;;;;27.37;15.87;;;3.70;99.90;;;3.86;80.19;95661.97;5041871;28;20057;-45
2022/04/01 03:06:12;;;;;;;29.90;16.40;;;3.80;99.90;;;4.03;79.72;95664.56;5025152;28;20049;-45
2022/04/01 03:08:41;;;;;;;33.40;18.43;;;3.90;99.90;;;4.04;79.57;95671.47;5025003;28;20269;-44
2022/04/01 03:11:09;;;;;;;30.10;16.83;;;3.90;99.90;;;3.90;79.95;95660.66;5024444;28;20064;-44
2022/04/01 03:13:38;;;;;;;31.77;18.33;;;3.80;99.90;;;3.85;80.00;95656.88;5025694;28;20075;-46
2022/04/01 03:16:41;;;;;;;34.07;18.27;;;3.70;99.90;;;3.81;79.89;95666.09;5023810;28;20061;-46
2022/04/01 03:19:10;;;;;;;34.33;18.17;;;3.70;99.90;;;3.73;80.08;95659.84;5025475;28;20248;-45
2022/04/01 03:21:40;;;;;;;33.47;18.77;;;3.70;99.90;;;3.83;80.15;95666.75;5024170;28;20445;-47
2022/04/01 03:24:10;;;;;;;33.63;18.80;;;3.70;99.90;;;3.85;79.81;95662.94;5025176;28;20057;-45
2022/04/01 03:26:40;;;;;;;32.63;19.20;;;3.70;99.90;;;3.99;79.69;95674.59;5023967;28;20080;-44
2022/04/01 03:29:10;;;;;;;31.83;17.33;;;3.80;99.90;;;3.96;79.59;95666.22;5024507;28;20045;-46
2022/04/01 03:31:40;;;;;;;31.73;16.57;;;3.80;99.90;;;4.05;79.27;95671.31;5024256;28;20506;-45
2022/04/01 03:34:08;;;;;;;34.40;18.07;;;3.90;99.90;;;4.05;79.19;95670.47;5026610;28;20042;-44
2022/04/01 03:36:36;;;;;;;34.57;17.93;;;3.80;99.90;;;3.92;79.48;95671.00;5025793;28;20056;-45
2022/04/01 03:39:05;;;;;;;33.07;17.57;;;3.70;99.90;;;3.63;79.96;95672.38;5024218;28;20241;-44
2022/04/01 03:41:56;;;;;;;32.03;16.87;;;3.50;99.90;;;3.67;80.09;95676.31;5025031;28;20084;-44
2022/04/01 03:44:25;;;;;;;29.20;16.87;;;3.50;99.90;;;3.66;80.04;95671.19;5024848;28;20385;-46
2022/04/01 03:48:14;;;;;;;33.20;17.10;;;3.50;99.90;;;3.76;79.70;95674.47;5033927;28;20060;-46
2022/04/01 03:50:49;;;;;;;32.07;17.43;;;3.60;99.90;;;3.80;79.59;95678.44;5027168;28;20052;-45
2022/04/01 03:53:29;;;;;;;31.90;18.15;;;3.70;99.90;;;3.70;79.74;95677.78;5029808;28;20054;-46
2022/04/01 03:56:02;;;;;;;31.87;17.10;;;3.60;99.90;;;3.73;80.23;95685.34;5024284;28;20251;-44
2022/04/01 03:58:49;;;;;;;29.03;17.53;;;3.50;99.90;;;3.80;79.77;95682.84;5025351;28;20449;-45
2022/04/01 04:01:34;;;;;;;31.17;16.45;;;3.60;99.90;;;3.72;80.12;95678.44;5029977;28;20339;-45
2022/04/01 04:04:03;;;;;;;26.53;15.17;;;3.60;99.90;;;3.60;79.83;95680.59;5027058;28;20262;-45
2022/04/01 04:06:35;;;;;;;34.43;18.47;;;3.50;99.90;;;3.67;79.62;95678.94;5029817;28;20049;-44
2022/04/01 04:09:03;;;;;;;24.90;16.20;;;3.50;99.90;;;3.72;79.69;95681.06;5027957;28;20293;-45
2022/04/01 04:11:34;;;;;;;33.87;17.80;;;3.60;99.90;;;3.82;79.24;95686.16;5029385;28;20053;-44
2022/04/01 04:14:27;;;;;;;34.47;19.90;;;3.60;99.90;;;3.87;79.18;95691.75;5036034;28;20383;-45
2022/04/01 04:16:57;;;;;;;34.33;18.13;;;3.60;99.90;;;3.73;79.41;95688.78;5045023;28;20049;-45
2022/04/01 04:19:45;;;;;;;34.57;18.53;;;3.50;99.90;;;3.79;79.37;95684.69;5028125;28;20275;-43
2022/04/01 04:22:19;;;;;;;24.50;14.83;;;3.60;99.90;;;3.85;79.03;95694.53;5012492;28;20063;-44
2022/04/01 04:24:58;;;;;;;30.70;16.20;;;3.60;99.90;;;3.88;78.86;95696.84;5027186;28;20060;-43
2022/04/01 04:27:29;;;;;;;34.53;18.97;;;3.60;99.90;;;3.78;79.00;95693.56;5027634;28;20050;-46
2022/04/01 04:30:08;;;;;;;;;;;3.60;99.90;;;3.74;78.78;95700.13;5028632;28;20067;-44
2022/04/01 04:33:07;;;;;;;27.07;16.40;;;3.50;99.90;;;3.78;78.51;95701.47;5030844;28;19932;-45
2022/04/01 04:35:40;;;;;;;29.10;15.67;;;3.60;99.90;;;3.78;78.56;95695.38;5012413;28;20053;-46
2022/04/01 04:38:10;;;;;;;27.08;15.50;;;3.60;99.90;;;3.69;78.59;95705.09;5045552;28;20243;-45
2022/04/01 04:40:42;;;;;;;29.23;15.53;;;3.40;99.90;;;3.58;78.77;95706.25;5027783;28;20067;-47
2022/04/01 04:43:18;;;;;;;30.57;18.73;;;3.40;99.90;;;3.42;79.35;95701.00;5027852;28;20050;-43
2022/04/01 04:45:49;;;;;;;29.37;17.83;;;3.20;99.90;;;3.24;79.75;95706.38;5030224;28;20056;-44
2022/04/01 04:48:19;;;;;;;28.50;15.87;;;3.10;99.90;;;3.34;79.37;95709.69;5044491;28;20054;-47
2022/04/01 04:50:48;;;;;;;29.07;16.87;;;3.20;99.90;;;3.31;79.03;95710.00;5027735;28;20056;-43
2022/04/01 04:53:20;;;;;;;28.77;16.60;;;3.10;99.90;;;3.11;79.85;95712.94;5012148;28;20045;-44
2022/04/01 04:55:50;;;;;;;31.80;18.40;;;3.00;99.90;;;3.31;79.71;95720.53;5027761;28;20133;-45
2022/04/01 04:58:26;;;;;;;26.10;14.20;;;3.10;99.90;;;3.18;79.52;95730.72;5028171;28;20044;-46
2022/04/01 05:01:07;;;;;;;31.37;18.50;;;3.10;99.90;;;3.37;79.38;95719.88;5011639;28;20056;-43
2022/04/01 05:04:33;;;;;;;26.17;16.40;;;3.20;99.90;;;3.31;79.43;95728.44;5027182;28;20247;-46
2022/04/01 05:07:47;;;;;;;26.60;16.87;;;3.20;99.90;;;3.21;79.38;95723.31;5026856;28;20064;-44
2022/04/01 05:10:59;;;;;;;27.77;16.27;;;3.10;99.90;;;3.19;79.19;95730.56;5031866;28;20355;-46
2022/04/01 05:13:49;;;;;;;28.17;16.73;;;3.00;99.90;;;3.00;79.27;95733.47;5026874;28;20061;-44
2022/04/01 05:16:48;;;;;;;30.27;17.57;;;2.90;99.90;;;3.22;79.06;95732.88;5028462;28;20244;-43
2022/04/01 05:19:26;;;;;;;28.13;16.80;;;3.00;99.90;;;3.12;79.63;95738.28;5027418;28;20045;-46
2022/04/01 05:22:08;;;;;;;29.40;18.27;;;3.00;99.90;;;3.10;79.43;95736.78;5011223;28;20339;-46
2022/04/01 05:24:53;;;;;;;27.73;15.80;;;2.90;99.90;;;3.15;79.49;95747.63;5028353;28;20038;-44
2022/04/01 05:27:28;;;;;;;30.57;17.10;;;2.90;99.90;;;3.09;79.66;95740.41;5026920;28;20060;-47
2022/04/01 05:30:17;;;;;;;30.33;17.50;;;2.90;99.90;;;2.97;79.84;95745.16;5028794;28;20335;-44
2022/04/01 05:33:08;;;;;;;29.37;17.27;;;2.80;99.90;;;2.80;79.87;95749.53;5011569;28;20049;-47
2022/04/01 05:35:41;;;;;;;37.97;22.90;;;2.70;99.90;;;2.93;79.98;95747.25;5012228;28;20067;-45
2022/04/01 05:38:11;;;;;;;32.63;16.65;;;2.80;99.90;;;2.90;79.88;95737.06;5026293;28;20053;-44
2022/04/01 05:40:40;;;;;;;32.97;19.40;;;2.80;99.90;;;2.88;80.09;95752.16;5027739;28;20493;-48
2022/04/01 05:43:14;;;;;;;37.20;20.03;;;2.80;99.90;;;2.93;80.00;95752.53;5026032;28;20057;-45
2022/04/01 05:45:53;;;;;;;32.70;18.13;;;2.80;99.90;;;2.85;80.33;95754.28;5030115;28;20061;-45
2022/04/01 05:48:22;;;;;;;26.33;15.10;;;2.70;99.90;;;2.71;80.30;95761.78;5027227;28;20058;-45
2022/04/01 05:50:54;;;;;;;28.27;14.80;;;2.70;99.90;;;2.71;80.00;95763.59;5027210;28;20053;-44
2022/04/01 05:53:25;;;;;;;32.10;17.77;;;2.70;99.90;;;2.94;79.77;95771.75;5011025;28;20053;-46
2022/04/01 05:55:55;;;;;;;37.17;19.07;;;2.80;99.90;;;3.12;79.64;95771.63;5010551;28;20057;-46
2022/04/01 05:58:23;;;;;;;32.30;18.63;;;2.90;99.90;;;3.28;79.38;95774.28;5026797;28;20057;-45
2022/04/01 06:01:30;;;;;;;34.63;18.87;;;3.10;99.90;;;3.11;78.53;95778.69;5026095;28;20057;-44
2022/04/01 06:04:18;;;;;;;41.67;23.00;;;3.00;99.90;;;3.13;78.64;95779.34;5026519;28;20359;-45
2022/04/01 06:06:49;;;;;;;34.53;19.87;;;3.00;99.90;;;3.04;78.94;95775.03;5010887;28;20053;-44
2022/04/01 06:10:20;;;;;;;37.50;22.13;;;2.80;99.90;;;3.22;78.70;95782.84;5025962;28;20053;-44
2022/04/01 06:13:30;;;;;;;29.33;15.37;;;2.90;99.90;;;3.09;77.95;95788.53;5027558;28;20726;-48
2022/04/01 06:16:43;;;;;;;32.00;17.90;;;2.90;99.90;;;3.01;78.43;95785.09;5032319;28;20037;-46
2022/04/01 06:19:43;;;;;;;29.37;16.67;;;2.80;99.90;;;3.03;78.29;95785.75;5023465;28;20053;-43
2022/04/01 06:22:22;;;;;;;28.13;16.83;;;2.80;99.90;;;3.09;78.66;95785.91;5024737;28;20501;-45
2022/04/01 06:25:17;;;;;;;32.40;19.33;;;2.80;99.90;;;3.19;78.59;95791.03;5025625;28;20053;-48
2022/04/01 06:27:49;;;;;;;;;;;2.90;99.90;;;2.81;78.18;95795.00;5026073;28;20056;-45
2022/04/01 06:30:21;;;;;;;28.07;15.67;;;2.70;99.90;;;2.89;78.51;95797.66;5025618;28;19923;-48
2022/04/01 06:33:31;;;;;;;26.53;16.37;;;2.70;99.90;;;2.75;78.58;95799.94;5042047;28;20057;-45
2022/04/01 06:36:34;;;;;;;27.57;15.33;;;2.50;99.90;;;2.86;78.48;95804.06;5028065;28;20056;-44
2022/04/01 06:39:10;;;;;;;30.67;17.70;;;2.60;99.90;;;2.89;78.49;95813.44;5011199;28;20053;-48
2022/04/01 06:41:47;;;;;;;26.53;14.90;;;2.60;99.90;;;2.81;78.53;95805.53;5025204;28;20287;-48
2022/04/01 06:44:33;;;;;;;32.83;18.63;;;2.50;99.90;;;2.72;78.92;95810.75;5026628;28;20120;-46
2022/04/01 06:47:17;;;;;;;32.57;17.77;;;2.50;99.90;;;2.92;79.31;95808.69;5032110;28;20774;-46
2022/04/01 06:49:48;;;;;;;29.60;16.60;;;2.70;99.90;;;2.88;79.19;95812.63;5025235;28;20061;-46
2022/04/01 06:52:19;;;;;;;33.50;18.90;;;2.70;99.90;;;2.87;78.90;95824.13;5027074;28;20065;-46
2022/04/01 06:55:10;;;;;;;32.13;16.40;;;2.70;99.90;;;2.75;79.03;95814.84;5026567;28;20048;-46
2022/04/01 06:57:57;;;;;;;33.50;18.90;;;2.50;99.90;;;2.88;78.96;95809.19;5029929;28;20048;-46
2022/04/01 07:00:42;;;;;;;30.10;18.03;;;2.60;99.90;;;2.79;79.25;95812.75;5026057;28;20459;-47
2022/04/01 07:03:11;;;;;;;30.83;17.87;;;2.60;99.90;;;2.81;79.45;95818.66;5026052;28;20248;-46
2022/04/01 07:05:40;;;;;;;32.07;18.73;;;2.60;99.90;;;2.84;79.20;95815.72;5025717;28;20355;-50
2022/04/01 07:08:08;;;;;;;33.27;19.63;;;2.60;99.90;;;2.87;79.10;95813.63;5027038;28;20057;-46
2022/04/01 07:10:38;;;;;;;31.53;17.00;;;2.70;99.90;;;2.81;79.50;95814.25;5025949;28;20057;-51
2022/04/01 07:13:10;;;;;;;30.90;18.07;;;2.70;99.90;;;2.82;79.04;95829.03;5035308;28;20053;-46
2022/04/01 07:15:38;;;;;;;31.47;18.37;;;2.70;99.90;;;2.87;78.96;95820.66;5035062;28;20049;-47
2022/04/01 07:18:07;;;;;;;27.23;17.20;;;2.70;99.90;;;2.74;79.67;95818.47;5036854;28;20053;-50
2022/04/01 07:20:35;;;;;;;28.97;15.47;;;2.50;99.90;;;2.52;80.41;95827.72;5036140;28;20052;-49
2022/04/01 07:23:03;;;;;;;32.47;18.73;;;2.40;99.90;;;2.66;79.60;95819.25;5034838;28;20056;-45
2022/04/01 07:25:31;;;;;;;37.37;19.40;;;2.50;99.90;;;2.74;79.30;95815.84;5035252;28;20048;-45
2022/04/01 07:27:59;;;;;;;32.83;18.33;;;2.50;99.90;;;2.69;79.83;95820.75;5033117;28;20056;-47
2022/04/01 07:30:27;;;;;;;31.53;17.00;;;2.50;99.90;;;2.50;80.38;95816.53;5037376;28;20059;-46
2022/04/01 07:32:58;;;;;;;33.47;17.97;;;2.40;99.90;;;2.54;79.98;95817.91;5038633;28;20049;-48
2022/04/01 07:35:27;;;;;;;26.77;15.03;;;2.40;99.90;;;2.39;80.48;95828.16;5036754;28;20049;-47
2022/04/01 07:37:55;;;;;;;34.73;17.37;;;2.30;99.90;;;2.37;80.33;95832.72;5038146;28;20047;-46
2022/04/01 07:40:24;;;;;;;31.50;18.63;;;2.40;99.90;;;2.54;80.51;95828.41;5038106;28;20051;-48
2022/04/01 07:42:53;;;;;;;34.73;19.90;;;2.40;99.90;;;2.62;80.30;95831.06;5036922;28;20080;-51
2022/04/01 07:45:22;;;;;;;33.20;18.27;;;2.50;99.90;;;2.52;80.16;95828.56;5036584;28;20053;-46
2022/04/01 07:47:51;;;;;;;37.67;20.80;;;2.50;99.90;;;2.60;80.33;95832.19;5037653;28;20049;-47
2022/04/01 07:50:21;;;;;;;37.00;20.00;;;2.50;99.90;;;2.59;80.30;95839.25;5037028;28;20041;-48
2022/04/01 07:52:50;;;;;;;33.73;20.07;;;2.50;99.90;;;2.68;80.47;95838.31;5037342;28;20365;-45
2022/04/01 07:55:19;;;;;;;31.57;18.97;;;2.50;99.90;;;2.63;80.36;95842.41;5032157;28;20291;-47
2022/04/01 07:57:50;;;;;;;34.00;20.27;;;2.50;99.90;;;2.72;80.12;95839.66;5036222;28;20084;-47
2022/04/01 08:00:37;;;;;;;32.27;19.47;;;2.50;99.90;;;2.60;80.15;95835.66;5035016;28;20064;-45
2022/04/01 08:03:05;;;;;;;29.70;18.30;;;2.50;99.90;;;2.60;80.38;95837.44;5038661;28;20366;-47
2022/04/01 08:05:33;;;;;;;28.57;16.93;;;2.50;99.90;;;2.53;79.90;95845.94;5035413;28;20065;-47
2022/04/01 08:08:01;;;;;;;29.60;17.60;;;2.40;99.90;;;2.65;80.19;95846.50;5035604;28;20237;-46
2022/04/01 08:10:29;;;;;;;27.67;16.47;;;2.50;99.90;;;2.51;80.39;95844.47;5037657;28;20041;-49
2022/04/01 08:12:57;;;;;;;27.47;17.57;;;2.40;99.90;;;2.53;80.57;95855.66;5036365;28;20045;-46
2022/04/01 08:15:25;;;;;;;30.37;16.90;;;2.40;99.90;;;2.62;79.88;95857.34;5038074;28;20049;-46
2022/04/01 08:17:58;;;;;;;26.70;15.73;;;2.50;99.90;;;2.66;80.02;95857.88;5035159;28;20045;-47
2022/04/01 08:20:26;;;;;;;26.87;16.00;;;2.50;99.90;;;2.79;79.76;95860.88;5034806;28;20053;-45
2022/04/01 08:22:54;;;;;;;27.37;16.33;;;2.60;99.90;;;2.71;79.92;95863.47;5033515;28;20060;-45
2022/04/01 08:25:23;;;;;;;25.30;13.93;;;2.60;99.90;;;2.52;80.21;95864.50;5035670;28;20042;-45
2022/04/01 08:27:59;;;;;;;22.70;13.27;;;2.40;99.90;;;2.39;80.80;95866.72;5032530;28;20045;-45
2022/04/01 08:30:28;;;;;;;23.43;13.03;;;2.30;99.90;;;2.43;80.74;95874.13;5035581;28;20314;-45
2022/04/01 08:32:55;;;;;;;24.10;13.57;;;2.40;99.90;;;2.45;80.96;95876.63;5035662;28;20037;-46
2022/04/01 08:35:23;;;;;;;23.97;14.43;;;2.40;99.90;;;2.49;80.25;95876.13;5033062;28;20037;-45
2022/04/01 08:37:54;;;;;;;23.53;14.40;;;2.40;99.90;;;2.56;80.47;95871.09;5036226;28;20275;-45
2022/04/01 08:40:22;;;;;;;24.03;16.07;;;2.40;99.90;;;2.55;80.42;95869.44;5034175;28;20049;-47
2022/04/01 08:42:50;;;;;;;22.43;13.83;;;2.40;99.90;;;2.60;80.43;95879.47;5035530;28;20247;-45
2022/04/01 08:45:19;;;;;;;25.30;14.83;;;2.50;99.90;;;2.73;79.82;95880.75;5034767;28;20053;-44
2022/04/01 08:47:48;;;;;;;29.53;15.37;;;2.60;99.90;;;2.89;79.98;95887.88;5035429;28;20050;-46
2022/04/01 08:50:16;;;;;;;23.90;12.00;;;2.70;99.90;;;2.62;79.60;95885.41;5036933;28;20056;-47
2022/04/01 08:52:44;;;;;;;25.57;13.93;;;2.50;99.90;;;2.59;80.24;95891.81;5038643;28;20045;-45
2022/04/01 08:55:13;;;;;;;25.07;13.87;;;2.40;99.90;;;2.73;79.72;95893.03;5038451;28;20045;-45
2022/04/01 08:57:43;;;;;;;21.00;12.73;;;2.50;99.90;;;2.57;79.65;95888.50;5036655;28;20075;-47
2022/04/01 09:00:14;;;;;;;23.77;14.37;;;2.50;99.90;;;2.50;80.30;95900.59;5038767;28;20045;-46
2022/04/01 09:02:57;;;;;;;24.83;14.23;;;2.40;99.90;;;2.52;79.99;95899.47;5037068;28;20053;-45
2022/04/01 09:05:25;;;;;;;26.87;14.00;;;2.40;99.90;;;2.73;80.11;95900.91;5037245;28;20049;-45
2022/04/01 09:08:05;;;;;;;25.10;13.53;;;2.50;99.90;;;2.80;79.83;95901.13;5038335;28;20292;-46
2022/04/01 09:11:01;;;;;;;28.33;17.23;;;2.60;99.90;;;2.81;79.76;95914.13;5039949;28;20061;-46
2022/04/01 09:13:32;;;;;;;26.30;14.37;;;2.70;99.90;;;2.74;79.90;95913.91;5036952;28;20041;-46
2022/04/01 09:16:02;;;;;;;23.33;14.93;;;2.60;99.90;;;2.84;79.49;95910.34;5036962;28;20177;-47
2022/04/01 09:18:36;;;;;;;21.47;13.30;;;2.70;99.90;;;2.63;79.61;95919.41;5037698;28;20053;-46
2022/04/01 09:21:10;;;;;;;21.97;11.67;;;2.50;99.90;;;2.62;79.82;95923.03;5038014;28;20049;-46
2022/04/01 09:23:45;;;;;;;23.40;12.63;;;2.50;99.90;;;2.50;79.77;95934.75;5035956;28;20532;-46
2022/04/01 09:26:13;;;;;;;20.70;12.80;;;2.40;99.90;;;2.45;79.79;95921.25;5036650;28;20057;-46
2022/04/01 09:28:42;;;;;;;22.50;13.20;;;2.30;99.90;;;2.66;79.59;95926.19;5039235;28;20355;-47
2022/04/01 09:31:15;;;;;;;22.03;12.77;;;2.50;99.90;;;2.60;79.66;95927.63;5038767;28;20045;-46
2022/04/01 09:34:10;;;;;;;19.13;11.00;;;2.40;99.90;;;2.48;79.99;95928.81;5038927;28;20075;-45
2022/04/01 09:36:41;;;;;;;18.93;12.43;;;2.40;99.90;;;2.66;79.70;95929.63;5037377;28;20049;-47
2022/04/01 09:39:19;;;;;;;20.07;12.07;;;2.50;99.90;;;2.80;79.50;95938.75;5038765;28;20052;-46
2022/04/01 09:41:49;;;;;;;21.20;12.87;;;2.60;99.90;;;2.87;79.36;95936.31;5039568;28;20108;-46
2022/04/01 09:44:27;;;;;;;21.60;11.93;;;2.60;99.90;;;2.73;79.24;95935.06;5035813;28;20244;-47
2022/04/01 09:47:01;;;;;;;20.87;12.70;;;2.50;99.90;;;2.82;79.51;95943.84;5035142;28;20231;-48
2022/04/01 09:49:30;;;;;;;;;;;2.50;99.90;;;2.58;79.26;95939.25;5036478;28;20063;-47
2022/04/01 09:52:08;;;;;;;17.37;10.80;;;2.50;99.90;;;2.85;79.05;95940.91;5038555;28;20214;-47
2022/04/01 09:54:52;;;;;;;19.50;11.63;;;2.60;99.90;;;2.84;78.78;95942.72;5037166;28;20045;-45
2022/04/01 09:57:23;;;;;;;20.60;12.73;;;2.70;99.90;;;2.94;79.24;95940.78;5053408;28;20222;-45
2022/04/01 09:59:53;;;;;;;17.70;11.43;;;2.70;99.90;;;2.76;79.39;95940.84;5037935;28;20053;-46
2022/04/01 10:02:21;;;;;;;19.33;12.50;;;2.60;99.90;;;2.95;79.01;95939.81;5042560;28;20045;-45
2022/04/01 10:04:49;;;;;;;22.53;12.40;;;2.70;99.90;;;3.05;78.91;95960.75;5043486;28;20046;-45
2022/04/01 10:07:19;;;;;;;16.43;11.47;;;2.80;99.90;;;2.85;78.57;95954.03;5042994;28;20045;-47
2022/04/01 10:09:50;;;;;;;21.57;12.03;;;2.60;99.90;;;3.00;79.02;95946.41;5026315;28;20091;-46
2022/04/01 10:12:36;;;;;;;17.87;11.90;;;2.70;99.90;;;3.07;78.79;95947.44;5042486;28;20055;-49
2022/04/01 10:15:07;;;;;;;21.53;13.40;;;2.80;99.90;;;3.07;78.69;95953.53;5042274;28;20049;-46
2022/04/01 10:17:55;;;;;;;20.17;11.10;;;2.80;99.90;;;3.09;78.65;95953.38;5039762;28;20352;-47
2022/04/01 10:20:33;;;;;;;19.13;10.67;;;2.80;99.90;;;2.75;78.65;95956.75;5040867;28;20041;-49
2022/04/01 10:23:12;;;;;;;19.30;11.53;;;2.60;99.90;;;2.55;79.38;95961.41;5039151;28;20041;-47
2022/04/01 10:26:02;;;;;;;18.37;12.37;;;2.40;99.90;;;2.51;79.45;95957.44;5033819;28;20479;-49
2022/04/01 10:28:30;;;;;;;19.90;11.77;;;2.30;99.90;;;2.59;79.27;95959.28;5036273;28;20049;-45
2022/04/01 10:31:02;;;;;;;15.57;9.40;;;2.40;99.90;;;2.49;79.54;95967.25;5035447;28;20057;-50
2022/04/01 10:33:35;;;;;;;19.27;11.53;;;2.40;99.90;;;2.55;79.55;95964.84;5031337;28;20362;-47
2022/04/01 10:36:24;;;;;;;19.13;11.47;;;2.40;99.90;;;2.68;79.63;95967.09;5029509;28;20045;-50
2022/04/01 10:39:07;;;;;;;14.70;9.43;;;2.50;99.90;;;2.59;79.43;95965.38;5031838;28;20049;-50
2022/04/01 10:41:35;;;;;;;16.75;10.38;;;2.40;99.90;;;2.52;79.83;95975.66;5029688;28;20052;-48
2022/04/01 10:44:04;;;;;;;15.10;9.57;;;2.40;99.90;;;2.54;79.82;95970.28;5029420;28;20049;-45
2022/04/01 10:46:37;;;;;;;16.30;10.13;;;2.40;99.90;;;2.41;80.29;95969.81;5030070;28;20045;-50
2022/04/01 10:52:17;;;;;;;17.95;10.38;;;2.50;99.90;;;2.53;80.28;95979.94;5030146;28;20063;-51
2022/04/01 10:55:06;;;;;;;13.17;9.20;;;2.50;99.90;;;2.50;80.41;95972.38;5028111;28;20059;-49
2022/04/01 10:57:44;;;;;;;14.07;10.07;;;2.40;99.90;;;2.43;80.68;95978.38;5029029;28;20068;-49
2022/04/01 11:00:16;;;;;;;15.73;10.53;;;2.40;99.90;;;2.59;80.10;95973.25;5028932;28;20145;-47